Time;durP1;ratioP1;P1;durP2;ratioP2;P2;SDS_P1;SDS_P2;PMS_P1;PMS_P2;Temp;Humidity;BMP_temperature;BMP_pressure;BME280_temperature;BME280_humidity;BME280_pressure;Samples;Min_cycle;Max_cycle;Signal;HPM_P1;HPM_P2
2022/05/30 00:01:26;;;;;;;23.60;17.30;;;;;;;12.45;62.94;99934.22;110316;1257;22842;-76
2022/05/30 00:03:55;;;;;;;21.60;16.50;;;;;;;12.43;62.87;99931.75;110361;1253;21963;-76
2022/05/30 00:06:29;;;;;;;25.00;16.00;;;;;;;12.41;62.76;99931.42;110668;1253;21966;-76
2022/05/30 00:08:58;;;;;;;21.40;16.20;;;;;;;12.39;62.72;99932.91;110664;1253;23663;-77
2022/05/30 00:11:27;;;;;;;25.60;18.00;;;;;;;12.38;62.98;99936.93;110661;1254;22259;-76
2022/05/30 00:13:57;;;;;;;25.20;16.80;;;;;;;12.37;63.03;99932.84;110110;1259;24400;-77
2022/05/30 00:16:26;;;;;;;24.60;17.30;;;;;;;12.36;63.19;99933.86;109164;1266;21972;-77
2022/05/30 00:18:57;;;;;;;23.50;17.10;;;;;;;12.37;63.54;99930.69;108835;1270;22815;-77
2022/05/30 00:21:27;;;;;;;24.90;16.80;;;;;;;12.39;63.85;99931.11;108924;1270;23738;-77
2022/05/30 00:23:56;;;;;;;24.10;16.90;;;;;;;12.41;64.06;99932.68;108756;1270;21986;-76
2022/05/30 00:26:27;;;;;;;21.60;16.70;;;;;;;12.41;64.15;99927.47;108861;1270;22321;-76
2022/05/30 00:28:57;;;;;;;21.70;15.40;;;;;;;12.42;64.40;99923.11;108688;1270;22029;-76
2022/05/30 00:31:26;;;;;;;23.60;17.00;;;;;;;12.44;64.46;99925.02;108759;1270;21992;-76
2022/05/30 00:33:55;;;;;;;21.40;16.50;;;;;;;12.46;64.65;99923.23;108865;1265;21976;-76
2022/05/30 00:36:25;;;;;;;22.20;15.80;;;;;;;12.47;64.78;99921.28;109546;1258;23683;-75
2022/05/30 00:38:55;;;;;;;22.10;16.10;;;;;;;12.47;64.81;99925.16;110236;1253;22033;-76
2022/05/30 00:41:26;;;;;;;27.40;16.80;;;;;;;12.48;64.86;99929.19;110821;1253;21983;-75
2022/05/30 00:43:55;;;;;;;23.00;16.90;;;;;;;12.49;65.06;99928.48;110405;1253;21960;-75
2022/05/30 00:46:27;;;;;;;22.30;16.80;;;;;;;12.50;65.21;99927.70;110546;1253;21997;-75
2022/05/30 00:49:00;;;;;;;;;;;;;;;12.49;65.23;99933.98;110671;1253;21961;-75
2022/05/30 00:51:41;;;;;;;24.30;17.10;;;;;;;12.40;65.55;99927.63;110750;1253;21969;-76
2022/05/30 00:54:20;;;;;;;24.00;16.30;;;;;;;12.39;65.73;99927.57;110689;1253;22879;-75
2022/05/30 00:56:54;;;;;;;22.00;17.10;;;;;;;12.41;65.68;99926.48;110642;1253;23018;-76
2022/05/30 00:59:24;;;;;;;23.40;16.60;;;;;;;12.41;65.61;99924.04;110579;1253;21960;-77
2022/05/30 01:01:53;;;;;;;23.90;17.60;;;;;;;12.40;65.42;99922.31;110709;1253;22825;-75
2022/05/30 01:07:11;;;;;;;25.50;16.30;;;;;;;12.37;65.07;99918.10;110534;1254;224000;-76
2022/05/30 01:09:45;;;;;;;25.10;18.10;;;;;;;12.36;65.00;99914.38;110584;1253;22185;-76
2022/05/30 01:12:15;;;;;;;25.60;17.80;;;;;;;12.36;65.15;99913.65;110437;1253;23745;-76
2022/05/30 01:14:48;;;;;;;23.80;17.10;;;;;;;12.38;65.11;99912.24;110676;1253;23686;-76
2022/05/30 01:17:17;;;;;;;24.30;18.00;;;;;;;12.39;65.26;99909.60;109999;1257;23788;-76
2022/05/30 01:20:14;;;;;;;22.40;17.70;;;;;;;12.40;65.21;99913.32;109810;1260;21975;-76
2022/05/30 01:22:55;;;;;;;24.80;18.50;;;;;;;12.39;65.30;99912.00;109984;1260;21971;-75
2022/05/30 01:25:35;;;;;;;24.80;17.10;;;;;;;12.39;65.40;99912.21;110001;1260;23713;-75
2022/05/30 01:28:39;;;;;;;22.70;18.00;;;;;;;12.38;65.35;99913.47;110176;1257;22013;-75
2022/05/30 01:31:09;;;;;;;26.00;17.30;;;;;;;12.36;65.39;99913.20;110215;1258;22030;-75
2022/05/30 01:33:39;;;;;;;22.40;17.60;;;;;;;12.29;65.30;99915.27;110229;1257;22106;-75
2022/05/30 01:36:08;;;;;;;25.20;19.70;;;;;;;12.21;65.51;99912.33;110363;1257;22941;-75
2022/05/30 01:38:40;;;;;;;23.80;17.10;;;;;;;12.20;65.54;99910.52;110188;1260;22014;-75
2022/05/30 01:41:11;;;;;;;24.00;19.20;;;;;;;12.20;65.72;99907.84;110101;1256;22011;-76
2022/05/30 01:43:40;;;;;;;24.70;17.90;;;;;;;12.19;65.46;99903.67;110801;1253;21962;-75
2022/05/30 01:46:19;;;;;;;20.60;17.40;;;;;;;12.17;65.25;99900.80;110732;1253;21959;-75
2022/05/30 01:48:53;;;;;;;21.60;16.70;;;;;;;12.13;65.09;99899.73;110623;1253;22036;-75
2022/05/30 01:51:23;;;;;;;20.90;17.80;;;;;;;12.09;64.95;99900.23;110373;1253;21995;-74
2022/05/30 01:53:55;;;;;;;;;;;;;;;12.09;65.05;99898.67;110660;1253;23071;-76
2022/05/30 01:56:48;;;;;;;25.00;19.40;;;;;;;12.02;65.16;99896.86;110677;1253;22798;-74
2022/05/30 01:59:18;;;;;;;21.80;19.50;;;;;;;12.00;65.05;99893.08;110590;1253;21972;-75
2022/05/30 02:02:17;;;;;;;18.60;16.70;;;;;;;11.97;64.95;99891.80;110755;1253;21958;-76
2022/05/30 02:04:46;;;;;;;23.50;19.20;;;;;;;11.98;65.06;99890.02;110361;1257;21960;-76
2022/05/30 02:07:16;;;;;;;21.60;17.50;;;;;;;12.01;64.90;99893.10;110034;1259;21957;-76
2022/05/30 02:09:46;;;;;;;23.00;17.00;;;;;;;12.00;64.67;99894.20;110062;1259;22035;-76
2022/05/30 02:12:16;;;;;;;21.00;15.90;;;;;;;11.99;64.49;99889.05;110433;1258;22098;-76
2022/05/30 02:15:17;;;;;;;18.10;14.50;;;;;;;11.98;64.62;99889.87;109519;1260;21967;-76
2022/05/30 02:17:49;;;;;;;18.20;14.90;;;;;;;12.02;64.78;99888.36;109424;1262;21975;-77
2022/05/30 02:20:18;;;;;;;16.20;13.30;;;;;;;12.08;64.64;99887.67;109595;1262;22047;-77
2022/05/30 02:22:48;;;;;;;13.00;9.50;;;;;;;12.14;64.60;99890.98;109964;1258;21970;-76
2022/05/30 02:25:17;;;;;;;10.00;8.50;;;;;;;12.15;64.36;99889.95;110213;1259;21972;-77
2022/05/30 02:27:46;;;;;;;11.70;7.40;;;;;;;12.15;64.15;99886.45;109561;1263;21984;-77
2022/05/30 02:30:15;;;;;;;7.70;6.10;;;;;;;12.14;63.81;99887.29;109584;1263;23647;-77
2022/05/30 02:32:45;;;;;;;11.90;7.30;;;;;;;12.11;63.53;99887.99;109252;1263;21977;-77
2022/05/30 02:38:02;;;;;;;9.50;6.40;;;;;;;12.10;63.18;99886.84;109756;1263;23703;-77
2022/05/30 02:40:53;;;;;;;10.90;5.70;;;;;;;12.13;62.96;99884.67;109617;1263;22581;-77
2022/05/30 02:43:50;;;;;;;6.60;4.60;;;;;;;12.16;62.81;99885.92;109401;1264;21990;-77
2022/05/30 02:46:20;;;;;;;10.10;6.00;;;;;;;12.21;62.68;99886.91;110001;1257;21981;-76
2022/05/30 02:48:50;;;;;;;9.00;5.20;;;;;;;12.27;62.51;99888.54;110129;1259;21975;-76
2022/05/30 02:51:20;;;;;;;10.60;5.60;;;;;;;12.29;62.33;99888.93;110350;1254;23626;-76
2022/05/30 02:53:49;;;;;;;11.40;6.50;;;;;;;12.32;62.08;99886.54;110627;1253;21968;-75
2022/05/30 02:56:53;;;;;;;13.70;5.00;;;;;;;12.31;62.00;99883.77;110706;1252;21956;-76
2022/05/30 02:59:26;;;;;;;7.40;5.30;;;;;;;12.29;61.81;99885.39;110682;1253;21957;-76
2022/05/30 03:02:02;;;;;;;9.40;5.90;;;;;;;12.27;61.75;99886.55;110610;1254;22729;-76
2022/05/30 03:04:32;;;;;;;10.80;6.40;;;;;;;12.27;61.87;99889.16;110561;1252;22061;-75
2022/05/30 03:07:06;;;;;;;10.70;7.00;;;;;;;12.29;61.71;99889.86;110634;1253;23585;-76
2022/05/30 03:09:35;;;;;;;9.60;5.20;;;;;;;12.30;61.72;99888.83;110683;1254;23052;-74
2022/05/30 03:12:18;;;;;;;10.50;6.20;;;;;;;12.31;61.82;99886.21;110586;1253;21957;-77
2022/05/30 03:14:49;;;;;;;12.00;6.50;;;;;;;12.32;61.74;99889.45;110560;1254;22033;-75
2022/05/30 03:17:18;;;;;;;12.10;7.20;;;;;;;12.29;61.77;99888.45;110153;1257;22326;-76
2022/05/30 03:19:52;;;;;;;11.00;7.00;;;;;;;12.22;61.75;99889.59;110200;1259;22753;-76
2022/05/30 03:22:22;;;;;;;9.30;7.30;;;;;;;12.15;61.81;99887.67;110148;1260;22334;-75
2022/05/30 03:25:14;;;;;;;11.70;6.90;;;;;;;12.07;62.19;99889.73;109787;1258;23661;-75
2022/05/30 03:27:44;;;;;;;13.60;7.40;;;;;;;12.06;62.64;99889.70;109390;1265;23728;-76
2022/05/30 03:30:14;;;;;;;10.50;7.10;;;;;;;12.09;62.85;99888.92;109058;1269;22001;-75
2022/05/30 03:32:46;;;;;;;11.20;7.50;;;;;;;12.15;63.26;99888.56;108812;1269;24315;-76
2022/05/30 03:35:16;;;;;;;9.90;6.10;;;;;;;12.20;63.43;99889.45;108807;1270;22428;-76
2022/05/30 03:38:09;;;;;;;14.50;6.60;;;;;;;12.26;63.54;99890.57;108830;1270;22445;-76
2022/05/30 03:40:56;;;;;;;11.50;6.50;;;;;;;12.25;63.53;99888.65;108926;1270;22020;-76
2022/05/30 03:43:51;;;;;;;13.90;6.00;;;;;;;12.19;63.45;99891.07;108781;1270;23705;-75
2022/05/30 03:46:20;;;;;;;12.90;7.80;;;;;;;12.17;63.76;99891.66;109094;1264;21981;-74
2022/05/30 03:48:54;;;;;;;10.20;6.60;;;;;;;12.17;63.98;99892.86;109330;1264;23623;-75
2022/05/30 03:51:25;;;;;;;10.20;6.30;;;;;;;12.13;63.92;99889.48;109546;1264;22650;-75
2022/05/30 03:53:55;;;;;;;10.80;6.40;;;;;;;12.09;64.15;99890.16;109702;1258;23069;-75
2022/05/30 03:56:24;;;;;;;11.00;6.00;;;;;;;12.09;64.42;99890.89;110885;1251;21977;-76
2022/05/30 03:58:53;;;;;;;10.50;6.30;;;;;;;12.09;64.63;99891.59;110447;1257;22083;-75
2022/05/30 04:01:24;;;;;;;9.70;6.10;;;;;;;12.12;64.72;99890.03;110192;1259;22078;-75
2022/05/30 04:03:54;;;;;;;8.80;6.00;;;;;;;12.15;64.89;99891.66;109918;1261;22295;-76
2022/05/30 04:06:23;;;;;;;10.60;6.30;;;;;;;12.16;64.89;99891.79;109851;1260;21950;-76
2022/05/30 04:08:52;;;;;;;8.80;6.00;;;;;;;12.17;64.79;99894.65;109868;1261;21971;-76
2022/05/30 04:11:40;;;;;;;11.70;7.60;;;;;;;12.12;64.64;99894.73;109942;1263;21986;-76
2022/05/30 04:14:27;;;;;;;13.00;9.20;;;;;;;12.05;64.82;99894.05;109003;1268;21983;-75
2022/05/30 04:17:35;;;;;;;15.60;10.50;;;;;;;11.99;65.01;99893.94;109343;1263;21978;-75
2022/05/30 04:20:08;;;;;;;13.60;9.40;;;;;;;11.94;65.19;99889.65;109376;1263;23071;-75
2022/05/30 04:22:38;;;;;;;16.70;10.20;;;;;;;11.95;65.39;99889.63;109645;1260;23073;-75
2022/05/30 04:25:29;;;;;;;14.10;9.60;;;;;;;11.91;65.44;99888.33;110048;1260;24368;-75
2022/05/30 04:27:59;;;;;;;14.50;8.40;;;;;;;11.91;65.65;99890.68;110024;1260;22910;-76
2022/05/30 04:30:31;;;;;;;13.90;8.60;;;;;;;11.91;65.71;99888.57;109778;1260;21988;-76
2022/05/30 04:33:00;;;;;;;11.30;7.70;;;;;;;11.93;66.02;99889.15;110271;1253;21978;-76
2022/05/30 04:35:30;;;;;;;11.80;8.50;;;;;;;11.99;66.18;99888.04;110712;1254;23723;-76
2022/05/30 04:37:59;;;;;;;10.10;8.10;;;;;;;12.05;66.26;99890.54;110684;1254;22663;-75
2022/05/30 04:41:04;;;;;;;12.10;7.90;;;;;;;12.09;66.27;99888.75;110093;1260;22036;-75
2022/05/30 04:43:52;;;;;;;13.50;8.10;;;;;;;12.16;66.39;99889.70;110060;1260;21975;-76
2022/05/30 04:46:58;;;;;;;20.20;17.40;;;;;;;12.24;66.43;99888.67;109474;1265;22060;-75
2022/05/30 04:49:30;;;;;;;21.00;16.40;;;;;;;12.31;66.19;99887.81;109673;1263;21946;-75
2022/05/30 04:52:01;;;;;;;10.70;8.20;;;;;;;12.38;66.08;99888.52;109753;1263;23037;-76
2022/05/30 04:54:30;;;;;;;10.10;7.00;;;;;;;12.45;65.87;99889.46;109575;1263;22278;-76
2022/05/30 04:57:18;;;;;;;15.20;7.10;;;;;;;12.47;65.89;99886.52;109736;1263;21981;-75
2022/05/30 05:00:10;;;;;;;9.00;5.40;;;;;;;12.52;65.77;99887.83;110214;1257;22009;-76
2022/05/30 05:02:42;;;;;;;11.60;4.70;;;;;;;12.58;65.43;99885.31;110186;1260;22033;-77
2022/05/30 05:05:14;;;;;;;17.00;4.40;;;;;;;12.63;65.23;99888.00;109606;1264;22196;-76
2022/05/30 05:08:26;;;;;;;9.20;4.30;;;;;;;12.68;64.99;99887.05;109338;1266;22169;-76
2022/05/30 05:11:26;;;;;;;11.60;4.80;;;;;;;12.67;64.47;99888.14;109502;1266;21992;-77
2022/05/30 05:14:18;;;;;;;9.80;4.30;;;;;;;12.64;64.45;99886.70;109330;1263;21977;-77
2022/05/30 05:17:08;;;;;;;8.20;4.70;;;;;;;12.63;64.60;99889.09;109331;1264;21991;-81
2022/05/30 05:19:40;;;;;;;11.20;5.30;;;;;;;12.60;64.49;99888.05;109266;1263;23044;-77
2022/05/30 05:22:15;;;;;;;6.80;4.70;;;;;;;12.59;64.59;99888.89;110003;1260;22419;-78
2022/05/30 05:24:45;;;;;;;8.90;4.60;;;;;;;12.63;64.71;99897.65;110842;1253;21974;-78
2022/05/30 05:27:16;;;;;;;6.30;4.50;;;;;;;12.68;64.56;99896.73;111014;1251;22746;-77
2022/05/30 05:29:52;;;;;;;8.00;4.80;;;;;;;12.72;64.40;99892.26;110980;1251;21980;-77
2022/05/30 05:32:21;;;;;;;10.00;5.60;;;;;;;12.74;64.32;99895.12;110684;1253;21953;-77
2022/05/30 05:34:50;;;;;;;7.90;4.50;;;;;;;12.75;64.33;99899.98;110729;1251;21962;-77
2022/05/30 05:37:21;;;;;;;7.30;5.00;;;;;;;12.77;64.27;99902.60;110115;1256;21963;-78
2022/05/30 05:40:08;;;;;;;8.10;4.60;;;;;;;12.77;64.11;99900.15;110183;1257;23031;-78
2022/05/30 05:42:38;;;;;;;6.70;4.80;;;;;;;12.77;64.16;99902.96;110390;1257;21967;-78
2022/05/30 05:45:08;;;;;;;6.50;4.60;;;;;;;12.76;64.11;99907.45;109927;1257;21966;-77
2022/05/30 05:47:37;;;;;;;8.60;4.40;;;;;;;12.72;64.11;99909.38;109950;1260;22710;-76
2022/05/30 05:50:07;;;;;;;6.80;4.90;;;;;;;12.70;64.17;99912.83;109880;1261;21990;-76
2022/05/30 05:52:37;;;;;;;9.00;5.10;;;;;;;12.69;64.19;99912.49;110013;1261;22099;-77
2022/05/30 05:55:13;;;;;;;7.60;5.90;;;;;;;12.72;64.24;99914.15;109948;1260;22037;-78
2022/05/30 05:57:44;;;;;;;9.70;4.40;;;;;;;12.73;64.22;99917.51;109781;1260;22015;-76
2022/05/30 06:00:17;;;;;;;10.90;5.40;;;;;;;12.75;64.33;99919.59;109663;1262;22015;-78
2022/05/30 06:02:49;;;;;;;8.70;5.50;;;;;;;12.79;64.39;99917.38;110086;1257;21937;-77
2022/05/30 06:05:22;;;;;;;10.60;5.40;;;;;;;12.83;64.48;99919.48;110174;1251;21970;-77
2022/05/30 06:08:23;;;;;;;8.60;4.50;;;;;;;12.87;64.67;99924.20;110875;1251;24521;-77
2022/05/30 06:11:08;;;;;;;8.40;5.00;;;;;;;12.91;64.60;99923.55;110644;1253;22437;-77
2022/05/30 06:13:46;;;;;;;9.60;4.70;;;;;;;12.91;64.36;99928.64;110737;1250;23788;-80
2022/05/30 06:16:26;;;;;;;9.70;5.00;;;;;;;12.89;64.24;99929.86;110949;1251;21990;-78
2022/05/30 06:19:02;;;;;;;6.30;4.00;;;;;;;12.90;64.47;99933.38;110783;1251;24444;-76
2022/05/30 06:21:55;;;;;;;5.00;4.30;;;;;;;12.98;64.55;99933.54;110799;1250;23600;-79
2022/05/30 06:24:28;;;;;;;7.40;3.50;;;;;;;13.03;64.32;99934.69;110902;1251;21987;-77
2022/05/30 06:27:20;;;;;;;7.30;3.80;;;;;;;13.06;64.08;99936.78;110793;1251;24279;-78
2022/05/30 06:30:25;;;;;;;7.40;4.40;;;;;;;13.11;64.20;99934.48;110957;1251;23124;-78
2022/05/30 06:32:54;;;;;;;5.30;3.20;;;;;;;13.21;64.32;99933.66;110592;1251;22987;-78
2022/05/30 06:35:41;;;;;;;7.00;4.00;;;;;;;13.32;64.37;99935.22;110781;1251;21964;-77
2022/05/30 06:38:20;;;;;;;6.20;3.20;;;;;;;13.38;63.99;99935.30;110716;1251;21974;-77
2022/05/30 06:41:19;;;;;;;5.20;2.70;;;;;;;13.42;63.48;99938.74;110346;1257;22012;-78
2022/05/30 06:44:04;;;;;;;;;;;;;;;13.41;62.93;99936.52;110130;1258;21941;-77
2022/05/30 06:46:56;;;;;;;7.70;3.50;;;;;;;13.37;63.12;99940.02;110312;1257;22281;-78
2022/05/30 06:49:43;;;;;;;6.60;4.00;;;;;;;13.44;63.26;99939.65;110359;1258;21981;-78
2022/05/30 06:52:15;;;;;;;7.50;3.60;;;;;;;13.54;63.06;99935.04;110059;1256;22031;-78
2022/05/30 06:54:45;;;;;;;5.70;3.30;;;;;;;13.63;63.02;99935.04;110128;1258;21981;-77
2022/05/30 07:00:06;;;;;;;6.60;3.70;;;;;;;13.75;62.64;99940.16;110742;1251;21916;-82
2022/05/30 07:02:41;;;;;;;7.60;3.40;;;;;;;13.81;62.47;99944.17;110705;1251;23150;-77
2022/05/30 07:05:28;;;;;;;6.60;3.30;;;;;;;13.82;62.18;99944.31;110841;1251;22653;-76
2022/05/30 07:08:16;;;;;;;5.50;3.00;;;;;;;13.88;62.10;99945.19;110853;1251;21965;-76
2022/05/30 07:10:56;;;;;;;6.90;4.30;;;;;;;13.91;61.94;99945.36;110609;1251;22120;-77
2022/05/30 07:13:28;;;;;;;8.90;3.60;;;;;;;13.95;61.83;99947.30;110632;1251;22014;-77
2022/05/30 07:15:57;;;;;;;7.30;3.60;;;;;;;13.96;61.47;99947.55;110769;1251;21998;-77
2022/05/30 07:18:32;;;;;;;5.80;3.50;;;;;;;13.94;61.26;99947.63;110734;1251;21957;-75
2022/05/30 07:21:07;;;;;;;5.00;3.60;;;;;;;13.90;61.06;99944.34;110827;1251;22061;-76
2022/05/30 07:23:56;;;;;;;5.70;3.80;;;;;;;13.87;61.07;99952.25;110764;1251;23331;-76
2022/05/30 07:26:44;;;;;;;4.90;3.40;;;;;;;13.80;61.07;99954.84;110733;1251;22021;-77
2022/05/30 07:29:34;;;;;;;7.40;3.70;;;;;;;13.82;61.44;99955.46;110861;1251;22763;-76
2022/05/30 07:32:22;;;;;;;5.80;3.70;;;;;;;13.84;61.13;99961.10;110835;1251;22990;-78
2022/05/30 07:35:09;;;;;;;6.20;3.70;;;;;;;13.82;61.03;99961.01;110662;1250;23103;-76
2022/05/30 07:37:57;;;;;;;8.20;4.80;;;;;;;13.78;61.21;99959.40;110822;1251;21958;-77
2022/05/30 07:40:55;;;;;;;7.70;3.90;;;;;;;13.72;61.28;99963.50;110525;1254;21972;-77
2022/05/30 07:43:47;;;;;;;8.30;4.30;;;;;;;13.68;61.42;99968.43;110321;1257;23037;-76
2022/05/30 07:46:33;;;;;;;8.10;3.60;;;;;;;13.68;61.57;99971.64;110185;1257;21978;-76
2022/05/30 07:49:16;;;;;;;8.30;4.40;;;;;;;13.68;61.48;99975.90;109695;1263;23080;-76
2022/05/30 07:52:08;;;;;;;5.60;3.40;;;;;;;13.62;61.09;99977.33;109578;1263;22100;-76
2022/05/30 07:54:44;;;;;;;4.50;3.00;;;;;;;13.50;61.04;99978.42;109106;1267;23832;-77
2022/05/30 07:57:18;;;;;;;5.20;3.20;;;;;;;13.38;61.19;99980.52;108804;1270;23708;-81
2022/05/30 07:59:47;;;;;;;6.30;4.00;;;;;;;13.35;61.64;99983.48;108867;1270;23630;-76
2022/05/30 08:02:18;;;;;;;5.60;4.00;;;;;;;13.36;61.99;99987.00;109370;1262;22742;-76
2022/05/30 08:04:50;;;;;;;5.50;3.10;;;;;;;13.37;61.87;99986.35;109192;1267;23006;-76
2022/05/30 08:07:39;;;;;;;8.40;4.40;;;;;;;13.34;61.58;99986.63;109487;1263;22029;-77
2022/05/30 08:10:28;;;;;;;14.30;4.40;;;;;;;13.34;61.91;99991.35;109664;1261;23052;-77
2022/05/30 08:12:59;;;;;;;4.70;3.10;;;;;;;13.37;62.00;99992.92;109857;1257;21947;-77
2022/05/30 08:15:45;;;;;;;4.80;3.00;;;;;;;13.41;62.11;99993.15;109447;1262;21993;-76
2022/05/30 08:18:33;;;;;;;5.50;3.50;;;;;;;13.43;62.06;99993.24;109622;1263;22049;-76
2022/05/30 08:21:05;;;;;;;6.80;3.00;;;;;;;13.45;61.76;99996.03;109432;1263;21969;-76
2022/05/30 08:23:37;;;;;;;8.70;5.80;;;;;;;13.42;61.70;99998.01;109936;1260;23744;-76
2022/05/30 08:26:11;;;;;;;6.40;3.30;;;;;;;13.44;61.97;99998.80;109947;1261;21996;-76
2022/05/30 08:29:09;;;;;;;6.60;4.40;;;;;;;13.52;61.89;99996.23;109883;1260;22108;-77
2022/05/30 08:31:39;;;;;;;7.70;3.20;;;;;;;13.54;61.52;99995.88;109987;1260;23052;-77
2022/05/30 08:34:35;;;;;;;4.80;3.50;;;;;;;13.58;61.30;99997.21;109788;1260;21986;-77
2022/05/30 08:37:04;;;;;;;9.50;2.50;;;;;;;13.62;61.18;99998.95;109830;1260;23589;-76
2022/05/30 08:42:41;;;;;;;6.70;3.10;;;;;;;13.69;60.55;99999.55;109933;1260;23052;-76
2022/05/30 08:45:22;;;;;;;4.40;2.10;;;;;;;13.70;60.07;100000.13;110257;1260;22001;-76
2022/05/30 08:49:13;;;;;;;4.10;2.30;;;;;;;13.72;59.98;100004.59;109902;1260;22006;-76
2022/05/30 08:52:28;;;;;;;6.50;2.90;;;;;;;13.71;59.05;100009.16;109782;1264;22732;-76
2022/05/30 08:55:42;;;;;;;6.60;3.20;;;;;;;13.66;59.17;100006.97;109590;1273;22004;-77
2022/05/30 08:58:47;;;;;;;4.90;2.60;;;;;;;13.71;59.43;100007.32;109660;1272;21993;-74
2022/05/30 09:02:10;;;;;;;7.90;2.80;;;;;;;13.78;59.50;100005.88;109054;1273;22012;-76
2022/05/30 09:04:55;;;;;;;4.30;2.10;;;;;;;13.80;59.51;100004.58;108454;1276;23116;-76
2022/05/30 09:07:36;;;;;;;10.00;3.30;;;;;;;13.88;59.87;100008.95;108794;1276;22031;-77
2022/05/30 09:10:28;;;;;;;4.90;2.70;;;;;;;13.92;59.55;100007.13;109158;1276;22018;-76
2022/05/30 09:13:30;;;;;;;6.10;2.70;;;;;;;13.92;59.35;100007.55;109134;1276;22004;-76
2022/05/30 09:16:58;;;;;;;5.10;2.60;;;;;;;13.88;59.29;100007.77;108908;1283;22022;-76
2022/05/30 09:19:44;;;;;;;6.60;3.30;;;;;;;13.93;59.47;100004.89;108421;1285;21964;-76
2022/05/30 09:22:37;;;;;;;4.30;2.60;;;;;;;14.08;59.84;100004.14;108639;1285;22014;-75
2022/05/30 09:25:56;;;;;;;4.00;2.60;;;;;;;14.22;59.34;100003.20;108578;1285;24361;-77
2022/05/30 09:28:48;;;;;;;3.80;2.10;;;;;;;14.37;59.09;100001.11;109081;1277;22011;-77
2022/05/30 09:32:01;;;;;;;5.40;2.80;;;;;;;14.53;58.36;100003.83;109212;1278;21991;-77
2022/05/30 09:34:59;;;;;;;4.10;2.50;;;;;;;14.61;57.54;100000.61;109233;1276;21957;-77
2022/05/30 09:38:32;;;;;;;4.80;2.70;;;;;;;14.80;57.37;100001.12;109596;1276;21992;-75
2022/05/30 09:41:23;;;;;;;9.30;5.70;;;;;;;14.97;56.94;100005.62;109356;1270;22044;-77
2022/05/30 09:44:49;;;;;;;7.40;5.40;;;;;;;15.14;56.70;100003.48;109936;1270;22107;-76
2022/05/30 09:48:24;;;;;;;7.70;4.40;;;;;;;15.27;55.47;100001.02;109370;1276;21848;-76
2022/05/30 09:51:46;;;;;;;6.50;3.70;;;;;;;15.36;54.79;100001.79;109381;1276;23838;-76
2022/05/30 09:54:23;;;;;;;6.70;2.10;;;;;;;15.42;53.74;100002.55;109508;1276;21996;-76
2022/05/30 09:57:13;;;;;;;3.90;1.90;;;;;;;15.31;52.55;100002.88;110021;1270;21961;-75
2022/05/30 10:00:20;;;;;;;5.10;2.90;;;;;;;15.22;52.56;99999.92;109768;1270;21995;-75
2022/05/30 10:03:42;;;;;;;4.50;3.60;;;;;;;15.15;52.45;100000.77;109228;1276;21996;-77
2022/05/30 10:06:34;;;;;;;6.50;3.80;;;;;;;15.28;53.37;100003.60;109300;1273;21972;-76
2022/05/30 10:10:00;;;;;;;6.40;4.70;;;;;;;15.43;52.99;100002.09;108702;1276;22001;-76
2022/05/30 10:12:56;;;;;;;5.40;3.70;;;;;;;15.59;53.27;99999.08;108779;1269;22082;-77
2022/05/30 10:15:56;;;;;;;7.30;4.20;;;;;;;15.71;52.65;100002.45;108985;1269;23631;-77
2022/05/30 10:18:36;;;;;;;4.20;2.70;;;;;;;15.74;52.04;100000.38;109164;1263;22114;-75
2022/05/30 10:21:06;;;;;;;7.20;5.30;;;;;;;15.84;52.26;100001.52;110249;1260;21975;-77
2022/05/30 10:31:15;;;;;;;5.30;3.20;;;;;;;15.92;50.81;100003.39;111056;1257;22086;-76
2022/05/30 10:34:22;;;;;;;4.30;2.40;;;;;;;15.97;51.14;100000.77;111240;1257;21988;-76
2022/05/30 10:37:35;;;;;;;4.00;1.80;;;;;;;16.03;51.03;99999.08;111329;1257;22321;-76
2022/05/30 10:40:33;;;;;;;12.30;9.10;;;;;;;16.05;50.62;100000.63;111584;1257;21929;-75
2022/05/30 10:44:06;;;;;;;6.40;3.30;;;;;;;16.02;50.53;99999.35;111354;1257;22130;-76
2022/05/30 10:47:40;;;;;;;5.50;1.50;;;;;;;15.87;49.88;99997.83;110211;1264;22161;-76
2022/05/30 10:51:04;;;;;;;3.80;1.80;;;;;;;15.87;50.27;99996.10;108951;1279;22320;-76
2022/05/30 10:54:32;;;;;;;4.70;1.40;;;;;;;16.03;50.39;99998.41;108385;1276;23107;-76
2022/05/30 10:57:45;;;;;;;4.00;1.60;;;;;;;16.06;49.78;99993.16;108428;1276;22006;-75
2022/05/30 11:00:18;;;;;;;7.20;2.00;;;;;;;16.05;49.62;99994.56;108515;1276;22070;-77
2022/05/30 11:03:20;;;;;;;5.80;2.00;;;;;;;16.12;49.90;99995.55;108516;1276;22024;-75
2022/05/30 11:06:16;;;;;;;4.00;2.20;;;;;;;16.13;49.48;99996.35;109086;1276;22065;-77
2022/05/30 11:09:57;;;;;;;4.70;2.30;;;;;;;16.16;49.74;100001.39;109411;1275;22001;-76
2022/05/30 11:12:38;;;;;;;3.00;1.50;;;;;;;16.14;49.92;100004.95;109360;1276;23629;-75
2022/05/30 11:15:43;;;;;;;2.30;1.10;;;;;;;16.07;50.12;100013.81;109458;1270;21996;-76
2022/05/30 11:19:23;;;;;;;2.20;0.90;;;;;;;16.03;50.33;100018.09;110020;1263;21999;-77
2022/05/30 11:22:49;;;;;;;2.30;0.80;;;;;;;15.91;50.26;100020.27;108932;1266;23834;-77
2022/05/30 11:26:14;;;;;;;2.60;1.00;;;;;;;15.75;50.24;100019.38;110068;1263;23174;-75
2022/05/30 11:29:52;;;;;;;1.90;1.00;;;;;;;15.64;50.69;100015.90;111836;1248;21970;-76
2022/05/30 11:33:13;;;;;;;1.80;1.10;;;;;;;15.53;50.99;100013.63;111518;1251;22133;-76
2022/05/30 11:36:02;;;;;;;2.50;1.10;;;;;;;15.48;51.30;100008.31;111808;1251;21983;-76
2022/05/30 11:38:58;;;;;;;1.60;0.80;;;;;;;15.46;51.48;100008.33;111282;1251;21966;-77
2022/05/30 11:42:19;;;;;;;2.40;1.20;;;;;;;15.52;51.73;100001.75;110883;1251;21945;-77
2022/05/30 11:45:32;;;;;;;3.40;1.40;;;;;;;15.55;51.41;99993.92;111882;1253;22081;-76
2022/05/30 11:48:23;;;;;;;1.80;1.30;;;;;;;15.52;50.60;99988.81;111953;1251;21996;-77
2022/05/30 11:51:44;;;;;;;1.80;0.90;;;;;;;15.51;50.70;99990.83;111667;1251;21973;-75
2022/05/30 11:54:27;;;;;;;3.60;1.40;;;;;;;15.53;50.47;99988.97;111501;1251;23074;-75
2022/05/30 11:57:50;;;;;;;3.70;1.30;;;;;;;15.62;50.43;99993.77;111525;1251;21978;-76
2022/05/30 12:00:52;;;;;;;3.00;1.40;;;;;;;15.72;50.22;99994.32;111488;1251;22413;-77
2022/05/30 12:04:44;;;;;;;2.60;1.00;;;;;;;15.83;50.14;99993.78;110996;1259;22071;-76
2022/05/30 12:07:59;;;;;;;3.30;1.00;;;;;;;15.76;48.91;99994.26;109830;1270;21960;-75
2022/05/30 12:10:42;;;;;;;2.60;1.90;;;;;;;15.70;48.82;99996.41;108979;1271;21994;-76
2022/05/30 12:13:44;;;;;;;2.10;1.20;;;;;;;15.77;49.03;100002.33;108799;1272;23749;-76
2022/05/30 12:16:46;;;;;;;5.30;1.80;;;;;;;15.79;49.10;100002.90;108781;1270;23022;-76
2022/05/30 12:25:54;;;;;;;3.80;1.50;;;;;;;15.74;49.53;100003.24;109691;1269;22053;-76
2022/05/30 12:28:27;;;;;;;2.40;1.60;;;;;;;15.72;49.65;100003.09;109894;1270;22027;-76
2022/05/30 12:31:33;;;;;;;3.30;1.60;;;;;;;15.78;50.01;100007.13;109827;1276;22011;-76
2022/05/30 12:34:10;;;;;;;3.10;2.00;;;;;;;15.86;50.08;100011.85;109573;1276;22004;-76
2022/05/30 12:37:07;;;;;;;1.70;1.20;;;;;;;15.92;49.56;100022.06;109610;1270;21993;-75
2022/05/30 12:39:38;;;;;;;3.30;1.50;;;;;;;15.95;49.18;100023.33;109340;1267;21984;-76
2022/05/30 12:42:34;;;;;;;3.10;1.90;;;;;;;16.05;48.75;100027.23;109286;1263;22790;-76
2022/05/30 12:45:22;;;;;;;1.80;1.10;;;;;;;16.04;47.77;100027.39;110996;1256;21979;-77
2022/05/30 12:47:55;;;;;;;4.20;1.60;;;;;;;16.09;47.59;100026.27;111656;1256;23730;-75
2022/05/30 12:50:39;;;;;;;2.70;1.30;;;;;;;16.28;48.00;100021.51;111805;1253;21936;-75
2022/05/30 12:53:12;;;;;;;3.40;1.50;;;;;;;16.51;47.69;100023.46;111584;1256;23754;-78
2022/05/30 12:55:49;;;;;;;2.80;1.10;;;;;;;16.73;47.30;100022.50;111167;1256;21962;-77
2022/05/30 12:58:36;;;;;;;4.60;2.10;;;;;;;16.90;46.46;100022.70;109919;1259;22216;-76
2022/05/30 13:01:26;;;;;;;3.20;1.70;;;;;;;16.93;45.50;100020.29;110092;1259;22034;-77
2022/05/30 13:04:25;;;;;;;3.20;1.50;;;;;;;16.94;45.45;100029.40;110169;1260;23040;-76
2022/05/30 13:07:01;;;;;;;4.40;1.90;;;;;;;16.89;45.04;100032.14;109808;1259;248168;-77